Time;durP1;ratioP1;P1;durP2;ratioP2;P2;SDS_P1;SDS_P2;PMS_P1;PMS_P2;Temp;Humidity;BMP_temperature;BMP_pressure;BME280_temperature;BME280_humidity;BME280_pressure;Samples;Min_cycle;Max_cycle;Signal;HPM_P1;HPM_P2
2022/05/24 00:02:08;;;;;;;;;;;;;;;31.44;22.42;99084.31;4411097;32;20017;-69
2022/05/24 00:04:34;;;;;;;;;;;;;;;31.83;22.02;99073.16;4411035;32;20354;-69
2022/05/24 00:06:59;;;;;;;;;;;;;;;31.72;22.15;99076.75;4409319;32;20999;-69
2022/05/24 00:09:25;;;;;;;;;;;;;;;31.80;22.02;99075.12;4409728;32;20005;-69
2022/05/24 00:11:51;;;;;;;;;;;;;;;31.39;22.27;99088.34;4411966;32;19961;-69
2022/05/24 00:15:19;;;;;;;;;;;;;;;31.63;22.13;99074.69;4410820;32;19949;-69
2022/05/24 00:17:03;;;;;;;;;;;;;;;31.77;21.97;99075.62;4412340;32;19962;-69
2022/05/24 00:19:29;;;;;;;;;;;;;;;31.00;22.78;99071.75;4411109;32;19993;-69
2022/05/24 00:21:55;;;;;;;;;;;;;;;30.97;22.90;99070.84;4411198;32;19996;-69
2022/05/24 00:24:21;;;;;;;;;;;;;;;30.98;23.02;99069.47;4408731;32;20333;-69
2022/05/24 00:26:47;;;;;;;;;;;;;;;31.26;22.47;99068.50;4411558;32;19960;-69
2022/05/24 00:29:13;;;;;;;;;;;;;;;31.67;22.26;99069.91;4411091;32;20058;-69
2022/05/24 00:31:39;;;;;;;;;;;;;;;31.41;22.22;99068.12;4411582;32;20034;-69
2022/05/24 00:34:04;;;;;;;;;;;;;;;31.22;22.49;99065.31;4410398;32;19993;-69
2022/05/24 00:36:30;;;;;;;;;;;;;;;31.44;22.25;99063.97;4408876;32;21029;-69
2022/05/24 00:38:56;;;;;;;;;;;;;;;31.00;22.54;99071.75;4411158;32;20761;-69
2022/05/24 00:41:28;;;;;;;;;;;;;;;31.60;22.06;99064.31;4403250;32;20064;-69
2022/05/24 00:46:52;;;;;;;;;;;;;;;32.28;21.34;99066.69;3945450;32;15799160;-68
2022/05/24 00:49:23;;;;;;;;;;;;;;;32.28;21.34;99066.69;4425331;32;20387;-69
2022/05/24 00:51:51;;;;;;;;;;;;;;;31.20;22.29;99070.25;4426979;32;20567;-69
2022/05/24 00:54:17;;;;;;;;;;;;;;;30.51;23.29;99067.53;4423897;32;20686;-69
2022/05/24 00:59:26;;;;;;;;;;;;;;;31.37;22.54;99076.56;3947789;32;15726612;-69
2022/05/24 01:01:52;;;;;;;;;;;;;;;31.37;22.54;99076.56;4430334;32;20356;-69
2022/05/24 01:04:19;;;;;;;;;;;;;;;31.46;22.21;99072.84;4428809;32;20121;-69
2022/05/24 01:06:46;;;;;;;;;;;;;;;30.71;22.87;99074.81;4430357;32;20601;-69
2022/05/24 01:09:14;;;;;;;;;;;;;;;31.50;22.18;99073.09;4430316;32;19994;-69
2022/05/24 01:11:43;;;;;;;;;;;;;;;31.34;22.14;99080.72;4428673;32;19997;-69
2022/05/24 01:14:09;;;;;;;;;;;;;;;31.30;22.21;99076.78;4430358;32;19957;-69
2022/05/24 01:16:35;;;;;;;;;;;;;;;31.42;21.97;99078.37;4430403;32;20371;-69
2022/05/24 01:19:04;;;;;;;;;;;;;;;31.37;22.05;99082.38;4430094;32;20337;-69
2022/05/24 01:21:31;;;;;;;;;;;;;;;31.60;21.82;99081.75;4428399;32;19962;-69
2022/05/24 01:24:04;;;;;;;;;;;;;;;31.42;21.67;99084.19;4430279;32;20023;-69
2022/05/24 01:26:49;;;;;;;;;;;;;;;30.83;22.04;99077.81;4431327;32;19997;-69
2022/05/24 01:29:16;;;;;;;;;;;;;;;31.30;21.97;99085.50;4430641;32;20386;-69
2022/05/24 01:37:14;;;;;;;;;;;;;;;31.11;21.70;99083.47;4429102;32;19984;-69
2022/05/24 01:39:42;;;;;;;;;;;;;;;30.14;22.83;99080.78;4430612;32;20003;-69
2022/05/24 01:42:08;;;;;;;;;;;;;;;30.96;21.86;99089.69;4428135;32;19961;-69
2022/05/24 01:44:54;;;;;;;;;;;;;;;30.44;22.07;99085.91;4428970;32;20009;-69
2022/05/24 01:47:22;;;;;;;;;;;;;;;30.17;22.58;99091.94;4428802;32;20001;-69
2022/05/24 01:49:50;;;;;;;;;;;;;;;30.31;22.53;99086.41;4429366;32;20229;-69
2022/05/24 01:52:26;;;;;;;;;;;;;;;30.81;21.96;99093.72;4428694;32;19985;-69
2022/05/24 01:54:55;;;;;;;;;;;;;;;30.86;21.95;99091.09;4429336;32;20346;-69
2022/05/24 01:57:25;;;;;;;;;;;;;;;31.05;21.82;99085.94;4426906;32;20020;-69
2022/05/24 01:59:52;;;;;;;;;;;;;;;31.11;21.64;99085.59;4429918;32;20440;-69
2022/05/24 02:02:17;;;;;;;;;;;;;;;31.00;21.94;99087.03;4426739;32;20214;-69
2022/05/24 02:04:43;;;;;;;;;;;;;;;31.46;21.50;99092.41;4427132;32;20071;-69
2022/05/24 02:07:14;;;;;;;;;;;;;;;31.46;21.24;99096.09;4427219;32;19965;-69
2022/05/24 02:09:41;;;;;;;;;;;;;;;30.64;22.33;99087.34;4422941;32;20320;-69
2022/05/24 02:12:09;;;;;;;;;;;;;;;31.08;21.84;99099.25;4417888;32;20039;-69
2022/05/24 02:14:39;;;;;;;;;;;;;;;31.56;21.31;99096.00;4418094;32;20048;-69
2022/05/24 02:17:11;;;;;;;;;;;;;;;31.12;21.83;99105.31;4418875;32;19969;-69
2022/05/24 02:19:39;;;;;;;;;;;;;;;31.27;21.71;99099.13;4419750;32;20036;-69
2022/05/24 02:22:10;;;;;;;;;;;;;;;31.16;21.86;99099.78;4416032;32;19976;-69
2022/05/24 02:24:35;;;;;;;;;;;;;;;31.20;21.83;99099.31;4418465;32;20015;-69
2022/05/24 02:27:01;;;;;;;;;;;;;;;30.75;22.29;99104.16;4418747;32;19996;-69
2022/05/24 02:29:27;;;;;;;;;;;;;;;31.20;22.02;99100.06;4419619;32;20067;-69
2022/05/24 02:31:52;;;;;;;;;;;;;;;31.51;21.52;99095.00;4419248;32;20506;-69
2022/05/24 02:34:18;;;;;;;;;;;;;;;29.88;23.07;99099.16;4418666;32;20456;-69
2022/05/24 02:36:43;;;;;;;;;;;;;;;30.21;22.75;99103.84;4417096;32;20009;-69
2022/05/24 02:39:09;;;;;;;;;;;;;;;30.94;22.21;99098.25;4419222;32;20004;-69
2022/05/24 02:41:36;;;;;;;;;;;;;;;31.28;21.69;99106.47;4418589;32;20009;-69
2022/05/24 02:44:05;;;;;;;;;;;;;;;31.19;21.79;99103.59;4417806;32;20045;-69
2022/05/24 02:46:31;;;;;;;;;;;;;;;30.91;22.16;99113.22;4417213;32;20001;-69
2022/05/24 02:48:57;;;;;;;;;;;;;;;31.38;21.55;99106.41;4417331;32;20055;-69
2022/05/24 02:51:22;;;;;;;;;;;;;;;30.54;22.52;99104.81;4419424;32;20461;-69
2022/05/24 02:53:48;;;;;;;;;;;;;;;29.41;23.81;99102.78;4419302;32;20433;-69
2022/05/24 02:56:14;;;;;;;;;;;;;;;30.33;22.87;99104.72;4418393;32;20009;-69
2022/05/24 02:58:40;;;;;;;;;;;;;;;30.91;22.16;99104.50;4414608;32;20021;-69
2022/05/24 03:01:15;;;;;;;;;;;;;;;30.02;23.12;99103.09;4417310;32;20004;-69
2022/05/24 03:03:41;;;;;;;;;;;;;;;29.71;23.46;99102.97;4415818;32;19957;-69
2022/05/24 03:06:06;;;;;;;;;;;;;;;29.71;23.37;99099.31;4415764;32;20065;-68
2022/05/24 03:11:21;;;;;;;;;;;;;;;30.40;22.66;99109.59;4419295;32;20290;-69
2022/05/24 03:14:20;;;;;;;;;;;;;;;30.31;22.87;99103.84;4416158;32;20444;-69
2022/05/24 03:16:34;;;;;;;;;;;;;;;30.00;23.02;99106.59;4417490;32;20012;-67
2022/05/24 03:19:00;;;;;;;;;;;;;;;30.43;22.71;99110.53;4419476;32;19953;-69
2022/05/24 03:21:25;;;;;;;;;;;;;;;31.07;22.01;99112.22;4416237;32;20035;-69
2022/05/24 03:23:51;;;;;;;;;;;;;;;30.60;22.57;99116.09;4416785;32;20307;-68
2022/05/24 03:26:17;;;;;;;;;;;;;;;30.19;22.97;99118.19;4416927;32;19949;-68
2022/05/24 03:28:43;;;;;;;;;;;;;;;30.25;22.89;99109.19;4417991;32;19973;-68
2022/05/24 03:31:09;;;;;;;;;;;;;;;30.74;22.42;99109.19;4417178;32;20043;-69
2022/05/24 03:33:35;;;;;;;;;;;;;;;30.22;22.91;99116.97;4417001;32;20013;-68
2022/05/24 03:36:01;;;;;;;;;;;;;;;29.99;23.18;99127.53;4406274;32;20001;-69
2022/05/24 03:38:28;;;;;;;;;;;;;;;30.19;22.83;99124.00;4416684;32;19960;-68
2022/05/24 03:40:54;;;;;;;;;;;;;;;29.61;23.53;99130.41;4416005;32;20005;-68
2022/05/24 03:43:20;;;;;;;;;;;;;;;29.94;23.14;99131.50;4417640;32;19949;-68
2022/05/24 03:45:46;;;;;;;;;;;;;;;30.20;22.60;99133.47;4418691;32;20012;-69
2022/05/24 03:48:12;;;;;;;;;;;;;;;30.19;22.68;99137.75;4416416;32;19968;-70
2022/05/24 03:50:37;;;;;;;;;;;;;;;30.48;22.40;99129.75;4417722;32;19987;-69
2022/05/24 03:53:03;;;;;;;;;;;;;;;30.80;22.09;99135.03;4417446;32;19964;-69
2022/05/24 03:55:29;;;;;;;;;;;;;;;30.24;22.62;99142.47;4418819;32;19969;-69
2022/05/24 03:58:02;;;;;;;;;;;;;;;30.57;22.18;99144.25;4417411;32;19977;-69
2022/05/24 04:00:36;;;;;;;;;;;;;;;30.84;21.84;99146.91;4418313;32;20001;-69
2022/05/24 04:03:10;;;;;;;;;;;;;;;30.85;21.71;99139.72;4417459;32;20414;-69
2022/05/24 04:05:37;;;;;;;;;;;;;;;30.33;22.27;99154.06;4417720;32;20046;-69
2022/05/24 04:08:02;;;;;;;;;;;;;;;30.29;22.07;99161.72;4416257;32;19991;-69
2022/05/24 04:10:29;;;;;;;;;;;;;;;31.05;21.35;99155.69;4417803;32;20001;-69
2022/05/24 04:12:55;;;;;;;;;;;;;;;30.76;21.51;99152.12;4420070;32;20272;-68
2022/05/24 04:15:20;;;;;;;;;;;;;;;30.93;21.54;99160.63;4417297;32;20029;-69
2022/05/24 04:17:47;;;;;;;;;;;;;;;31.09;21.30;99172.63;4418936;32;20020;-69
2022/05/24 04:20:13;;;;;;;;;;;;;;;31.01;21.39;99172.81;4417308;32;19980;-68
2022/05/24 04:22:39;;;;;;;;;;;;;;;30.80;21.66;99175.69;4415966;32;19956;-70
2022/05/24 04:25:05;;;;;;;;;;;;;;;31.06;21.28;99183.34;4418133;32;21147;-69
2022/05/24 04:27:31;;;;;;;;;;;;;;;30.83;21.68;99176.56;4417698;32;20003;-69
2022/05/24 04:29:57;;;;;;;;;;;;;;;30.34;22.02;99180.97;4416337;32;20004;-69
2022/05/24 04:32:23;;;;;;;;;;;;;;;30.82;21.45;99181.62;4416196;32;20001;-69
2022/05/24 04:34:49;;;;;;;;;;;;;;;30.94;21.49;99191.19;4416312;32;19994;-69
2022/05/24 04:37:15;;;;;;;;;;;;;;;30.68;21.58;99192.94;4415854;32;19985;-69
2022/05/24 04:39:40;;;;;;;;;;;;;;;30.64;21.64;99188.97;4417272;32;20424;-69
2022/05/24 04:42:24;;;;;;;;;;;;;;;30.78;21.43;99192.94;4416325;32;19975;-69
2022/05/24 04:44:53;;;;;;;;;;;;;;;31.04;21.33;99197.00;4418536;32;19992;-69
2022/05/24 04:47:21;;;;;;;;;;;;;;;30.84;21.36;99193.37;4418107;32;20093;-69
2022/05/24 04:49:49;;;;;;;;;;;;;;;30.43;21.64;99201.25;4416967;32;20013;-69
2022/05/24 04:52:15;;;;;;;;;;;;;;;30.41;21.59;99194.53;4417481;32;19981;-69
2022/05/24 04:54:43;;;;;;;;;;;;;;;29.57;22.60;99202.59;4417839;32;20525;-69
2022/05/24 04:57:11;;;;;;;;;;;;;;;30.44;21.77;99199.88;4415702;32;20485;-69
2022/05/24 04:59:37;;;;;;;;;;;;;;;30.22;21.80;99209.84;4416753;32;19989;-69
2022/05/24 05:02:03;;;;;;;;;;;;;;;30.17;21.90;99199.28;4415319;32;19993;-69
2022/05/24 05:04:29;;;;;;;;;;;;;;;30.20;22.02;99206.78;4412466;32;20024;-68
2022/05/24 05:06:55;;;;;;;;;;;;;;;30.38;21.49;99208.16;4416480;32;20379;-69
2022/05/24 05:09:21;;;;;;;;;;;;;;;30.41;21.66;99206.16;4414183;32;19997;-69
2022/05/24 05:11:47;;;;;;;;;;;;;;;30.03;22.24;99209.06;4418137;32;20016;-69
2022/05/24 05:14:14;;;;;;;;;;;;;;;30.72;21.46;99210.69;4418953;32;20364;-69
2022/05/24 05:16:40;;;;;;;;;;;;;;;30.63;21.56;99219.41;4417365;32;19969;-69
2022/05/24 05:19:07;;;;;;;;;;;;;;;30.66;21.59;99218.19;4418644;32;19992;-69
2022/05/24 05:21:33;;;;;;;;;;;;;;;30.65;21.64;99223.22;4416113;32;19958;-69
2022/05/24 05:23:59;;;;;;;;;;;;;;;30.35;21.89;99226.78;4413112;32;20007;-69
2022/05/24 05:26:25;;;;;;;;;;;;;;;29.61;22.51;99226.84;4417830;32;19968;-69
2022/05/24 05:28:51;;;;;;;;;;;;;;;29.46;22.69;99232.91;4417428;32;19989;-69
2022/05/24 05:31:17;;;;;;;;;;;;;;;30.16;22.01;99247.06;4417096;32;20001;-69
2022/05/24 05:33:43;;;;;;;;;;;;;;;30.61;21.46;99245.38;4416608;32;19987;-69
2022/05/24 05:36:09;;;;;;;;;;;;;;;30.43;21.79;99241.16;4416678;32;19961;-69
2022/05/24 05:38:35;;;;;;;;;;;;;;;30.69;21.56;99237.28;4415424;32;20008;-69
2022/05/24 05:41:00;;;;;;;;;;;;;;;31.15;21.18;99249.41;4417186;32;20398;-69
2022/05/24 05:43:26;;;;;;;;;;;;;;;30.79;21.44;99250.44;4419251;32;20012;-69
2022/05/24 05:45:53;;;;;;;;;;;;;;;30.98;21.02;99249.59;4417919;32;19961;-69
2022/05/24 05:48:19;;;;;;;;;;;;;;;30.89;21.20;99244.56;4420372;32;20061;-69
2022/05/24 05:50:44;;;;;;;;;;;;;;;30.72;21.20;99259.28;4418786;32;20008;-69
2022/05/24 05:53:09;;;;;;;;;;;;;;;30.47;21.51;99250.91;4420232;32;19961;-69
2022/05/24 05:55:36;;;;;;;;;;;;;;;30.51;21.56;99259.16;4420362;32;20252;-69
2022/05/24 05:58:02;;;;;;;;;;;;;;;30.77;21.25;99256.06;4418115;32;20250;-69
2022/05/24 06:00:27;;;;;;;;;;;;;;;30.88;21.02;99257.59;4418608;32;20027;-69
2022/05/24 06:02:53;;;;;;;;;;;;;;;30.43;21.55;99255.66;4418464;32;19969;-69
2022/05/24 06:05:18;;;;;;;;;;;;;;;29.17;22.79;99263.16;4419013;32;19952;-69
2022/05/24 06:07:44;;;;;;;;;;;;;;;29.57;22.13;99272.16;4419821;32;20468;-69
2022/05/24 06:10:11;;;;;;;;;;;;;;;29.46;22.47;99264.81;4418898;32;20048;-69
2022/05/24 06:12:37;;;;;;;;;;;;;;;28.84;23.20;99274.25;4418506;32;20379;-69
2022/05/24 06:15:02;;;;;;;;;;;;;;;29.97;22.06;99269.53;4419943;32;20070;-69
2022/05/24 06:17:28;;;;;;;;;;;;;;;30.46;21.32;99283.44;4417894;32;20054;-69
2022/05/24 06:19:54;;;;;;;;;;;;;;;29.61;22.16;99276.16;4417183;32;19972;-69
2022/05/24 06:22:19;;;;;;;;;;;;;;;30.30;21.56;99285.13;4417005;32;19968;-69
2022/05/24 06:24:46;;;;;;;;;;;;;;;29.46;22.51;99284.31;4421365;32;19995;-69
2022/05/24 06:27:12;;;;;;;;;;;;;;;30.34;21.63;99282.56;4412417;32;20008;-69
2022/05/24 06:29:38;;;;;;;;;;;;;;;29.82;22.27;99285.06;4411873;32;20304;-69
2022/05/24 06:32:04;;;;;;;;;;;;;;;30.86;21.27;99289.38;4415587;32;19988;-69
2022/05/24 06:34:30;;;;;;;;;;;;;;;30.44;21.50;99295.66;4416622;32;20008;-69
2022/05/24 06:36:56;;;;;;;;;;;;;;;30.70;21.40;99300.56;4418749;32;20018;-69
2022/05/24 06:39:22;;;;;;;;;;;;;;;30.42;21.49;99304.25;4416797;32;19995;-69
2022/05/24 06:41:47;;;;;;;;;;;;;;;30.82;21.24;99312.34;4412232;32;19985;-69
2022/05/24 06:44:14;;;;;;;;;;;;;;;31.13;20.68;99310.25;4409485;32;19965;-69
2022/05/24 06:46:41;;;;;;;;;;;;;;;31.40;20.62;99325.34;4417008;32;19968;-69
2022/05/24 06:49:10;;;;;;;;;;;;;;;31.63;20.40;99328.47;4412465;32;19965;-69
2022/05/24 06:51:35;;;;;;;;;;;;;;;31.66;20.08;99327.22;4409132;32;21112;-69
2022/05/24 06:54:01;;;;;;;;;;;;;;;31.61;20.00;99336.28;4405908;32;19958;-69
2022/05/24 06:56:26;;;;;;;;;;;;;;;31.43;20.17;99327.03;4402304;32;20028;-68
2022/05/24 07:02:25;;;;;;;;;;;;;;;31.97;19.76;99330.16;4405325;32;19997;-70
2022/05/24 07:04:23;;;;;;;;;;;;;;;33.56;18.24;99344.56;4403282;32;20559;-69
2022/05/24 07:06:48;;;;;;;;;;;;;;;32.80;18.81;99354.84;4406023;32;20228;-69
2022/05/24 07:09:14;;;;;;;;;;;;;;;32.81;18.86;99352.66;4404199;32;20606;-69
2022/05/24 07:11:40;;;;;;;;;;;;;;;31.48;20.39;99360.06;4406706;32;19997;-70
2022/05/24 07:14:06;;;;;;;;;;;;;;;32.42;19.60;99364.66;4406289;32;19969;-69
2022/05/24 07:16:32;;;;;;;;;;;;;;;31.84;20.24;99354.72;4404351;32;20014;-70
2022/05/24 07:18:58;;;;;;;;;;;;;;;31.75;20.58;99367.13;4403862;32;19989;-69
2022/05/24 07:21:24;;;;;;;;;;;;;;;32.30;19.76;99374.66;4401518;32;19997;-69
2022/05/24 07:23:49;;;;;;;;;;;;;;;31.76;20.36;99365.78;4400763;32;20240;-69
2022/05/24 07:26:17;;;;;;;;;;;;;;;32.02;19.81;99364.72;4403842;32;20399;-68
2022/05/24 07:28:42;;;;;;;;;;;;;;;32.74;19.20;99363.19;4407027;32;19957;-68
2022/05/24 07:31:08;;;;;;;;;;;;;;;31.91;20.11;99365.41;4405011;32;20396;-69
2022/05/24 07:33:34;;;;;;;;;;;;;;;31.47;20.46;99373.09;4401858;32;20000;-68
2022/05/24 07:35:59;;;;;;;;;;;;;;;31.01;20.96;99384.19;4398201;32;20041;-69
2022/05/24 07:38:25;;;;;;;;;;;;;;;32.04;19.90;99387.41;4408794;32;20941;-70
2022/05/24 07:46:21;;;;;;;;;;;;;;;32.26;19.39;99383.13;4404180;32;20371;-70
2022/05/24 07:48:47;;;;;;;;;;;;;;;32.74;18.75;99392.31;4401075;32;20493;-71
2022/05/24 07:51:13;;;;;;;;;;;;;;;33.30;18.16;99396.09;4403898;32;20283;-70
2022/05/24 07:53:39;;;;;;;;;;;;;;;32.74;17.81;99400.28;4403056;32;20043;-70
2022/05/24 07:56:05;;;;;;;;;;;;;;;32.83;17.71;99403.12;4409992;32;20015;-70
2022/05/24 07:58:30;;;;;;;;;;;;;;;32.98;17.40;99401.94;4406625;32;20240;-69
2022/05/24 08:00:57;;;;;;;;;;;;;;;33.64;16.99;99404.19;4403720;32;20190;-69
2022/05/24 08:03:23;;;;;;;;;;;;;;;33.97;16.75;99407.03;4403847;32;20020;-70
2022/05/24 08:05:48;;;;;;;;;;;;;;;34.54;16.20;99403.31;4406093;32;20020;-70
2022/05/24 08:08:14;;;;;;;;;;;;;;;34.53;16.17;99422.25;4406885;32;20053;-70
2022/05/24 08:10:41;;;;;;;;;;;;;;;33.28;16.98;99421.47;4406867;32;20000;-69
2022/05/24 08:13:09;;;;;;;;;;;;;;;33.37;16.88;99427.22;4404789;32;20398;-69
2022/05/24 08:15:35;;;;;;;;;;;;;;;33.84;16.49;99428.81;4408893;32;20021;-69
2022/05/24 08:18:01;;;;;;;;;;;;;;;32.40;17.65;99422.75;4404406;32;21193;-69
2022/05/24 08:20:27;;;;;;;;;;;;;;;33.13;17.64;99416.81;4401459;32;20020;-69
2022/05/24 08:22:53;;;;;;;;;;;;;;;32.78;18.66;99430.47;4406050;32;19996;-70
2022/05/24 08:25:18;;;;;;;;;;;;;;;31.47;20.20;99428.34;4405138;32;20011;-69
2022/05/24 08:27:44;;;;;;;;;;;;;;;31.15;20.57;99437.53;4405498;32;20241;-69
2022/05/24 08:30:11;;;;;;;;;;;;;;;31.44;20.59;99441.94;4411398;32;20392;-69
2022/05/24 08:32:38;;;;;;;;;;;;;;;30.97;20.89;99451.47;4405658;32;20035;-70
2022/05/24 08:35:05;;;;;;;;;;;;;;;31.53;20.29;99446.22;4409084;32;20743;-68
2022/05/24 08:37:31;;;;;;;;;;;;;;;31.44;20.15;99449.94;4405090;32;19981;-69
2022/05/24 08:39:59;;;;;;;;;;;;;;;30.90;20.35;99443.66;4410507;32;20960;-69
2022/05/24 08:42:36;;;;;;;;;;;;;;;32.28;19.16;99442.25;4408994;32;19973;-70
2022/05/24 08:50:26;;;;;;;;;;;;;;;32.84;18.71;99439.63;4438055;32;20405;-71
2022/05/24 08:52:57;;;;;;;;;;;;;;;32.93;18.57;99450.47;4434639;32;20447;-71
2022/05/24 08:55:23;;;;;;;;;;;;;;;32.82;18.71;99448.22;4435573;32;20028;-71
2022/05/24 08:57:50;;;;;;;;;;;;;;;32.99;18.47;99447.19;4432726;32;20287;-71
2022/05/24 09:00:21;;;;;;;;;;;;;;;33.38;18.21;99445.47;4435425;32;20437;-70
2022/05/24 09:02:47;;;;;;;;;;;;;;;32.60;19.15;99449.59;4435899;32;19971;-70
2022/05/24 09:05:17;;;;;;;;;;;;;;;33.09;18.18;99451.53;4434399;32;20040;-70
2022/05/24 09:07:48;;;;;;;;;;;;;;;33.65;17.54;99451.66;4432917;32;21490;-70
2022/05/24 09:10:19;;;;;;;;;;;;;;;33.18;18.07;99455.75;4434608;32;20002;-69
2022/05/24 09:13:06;;;;;;;;;;;;;;;33.12;17.98;99461.19;4432096;32;19961;-69
2022/05/24 09:15:37;;;;;;;;;;;;;;;32.91;18.15;99449.56;4435729;32;20319;-70
2022/05/24 09:20:40;;;;;;;;;;;;;;;32.30;18.92;99474.44;3948939;31;15715392;-70
2022/05/24 09:26:00;;;;;;;;;;;;;;;31.90;21.54;99485.34;3961438;31;15716398;-70
2022/05/24 09:33:56;;;;;;;;;;;;;;;32.14;19.90;99484.16;3959889;32;15721527;-69
2022/05/24 09:36:32;;;;;;;;;;;;;;;32.08;20.72;99477.91;4440409;32;20008;-69
2022/05/24 09:38:57;;;;;;;;;;;;;;;31.95;19.98;99485.00;4436338;32;20008;-70
2022/05/24 09:41:23;;;;;;;;;;;;;;;32.09;20.28;99485.28;4436516;32;20014;-71
2022/05/24 09:44:00;;;;;;;;;;;;;;;31.30;22.01;99480.84;4436210;32;19992;-70
2022/05/24 09:46:26;;;;;;;;;;;;;;;31.97;21.23;99488.06;4435391;32;19964;-69
2022/05/24 09:48:54;;;;;;;;;;;;;;;32.16;21.52;99488.00;4438042;32;19956;-69
2022/05/24 09:51:23;;;;;;;;;;;;;;;30.83;22.35;99488.91;4435777;32;20379;-70
2022/05/24 09:53:51;;;;;;;;;;;;;;;31.26;22.45;99484.16;4438684;32;19980;-70
2022/05/24 09:56:20;;;;;;;;;;;;;;;32.35;21.58;99479.19;4440077;32;20464;-69
2022/05/24 09:58:55;;;;;;;;;;;;;;;32.60;20.59;99476.59;4437384;32;20475;-69
2022/05/24 10:01:41;;;;;;;;;;;;;;;33.25;20.01;99473.03;4440373;32;20002;-69
2022/05/24 10:06:52;;;;;;;;;;;;;;;33.91;19.61;99483.31;3950029;31;15717078;-71
2022/05/24 10:11:59;;;;;;;;;;;;;;;34.67;20.43;99495.41;3941288;32;15732257;-69
2022/05/24 10:17:23;;;;;;;;;;;;;;;33.97;20.24;99494.59;3943382;32;15721769;-70
2022/05/24 10:25:31;;;;;;;;;;;;;;;36.35;17.94;99484.13;3941285;32;15723117;-71
2022/05/24 10:39:01;;;;;;;;;;;;;;;32.37;19.92;99554.28;4419878;32;20021;-68
2022/05/24 10:41:32;;;;;;;;;;;;;;;30.48;22.96;99534.06;4421963;32;19985;-69
2022/05/24 10:44:05;;;;;;;;;;;;;;;30.94;22.07;99522.41;4414732;32;21183;-68
2022/05/24 10:54:23;;;;;;;;;;;;;;;32.18;22.57;99511.41;3947637;32;15723842;-69
2022/05/24 10:56:53;;;;;;;;;;;;;;;32.18;22.57;99511.41;4421217;32;20436;-69
2022/05/24 10:59:28;;;;;;;;;;;;;;;33.73;21.88;99516.34;4419381;32;20000;-71
2022/05/24 11:01:57;;;;;;;;;;;;;;;33.98;19.54;99517.34;4418825;32;20023;-69
2022/05/24 11:04:27;;;;;;;;;;;;;;;33.86;19.15;99525.28;4413396;32;19992;-70
2022/05/24 11:07:03;;;;;;;;;;;;;;;34.45;19.49;99508.63;4413921;32;20000;-70
2022/05/24 11:09:30;;;;;;;;;;;;;;;35.38;18.38;99515.84;4418404;32;19996;-70
2022/05/24 11:11:59;;;;;;;;;;;;;;;35.54;16.94;99510.94;4417853;32;20377;-70
2022/05/24 11:14:33;;;;;;;;;;;;;;;35.28;17.65;99524.75;4416631;32;20367;-70
2022/05/24 11:17:00;;;;;;;;;;;;;;;33.04;18.54;99525.53;4420533;32;20347;-71
2022/05/24 11:22:21;;;;;;;;;;;;;;;33.63;17.17;99536.13;3941428;32;15729194;-70
2022/05/24 11:27:44;;;;;;;;;;;;;;;33.15;17.22;99541.56;3941673;32;15746342;-70
2022/05/24 11:30:13;;;;;;;;;;;;;;;33.15;17.22;99541.56;4416567;32;19996;-70
2022/05/24 11:37:55;;;;;;;;;;;;;;;33.00;17.40;99542.00;3943216;32;15726248;-70
2022/05/24 11:40:39;;;;;;;;;;;;;;;33.40;17.11;99542.63;4408030;32;20020;-71
2022/05/24 11:43:08;;;;;;;;;;;;;;;34.38;16.77;99548.38;4409750;32;19993;-70
2022/05/24 11:50:50;;;;;;;;;;;;;;;37.29;13.94;99547.84;3944486;32;15739565;-71
2022/05/24 12:09:26;;;;;;;;;;;;;;;36.10;13.69;99594.06;4418604;32;20607;-70
2022/05/24 12:12:11;;;;;;;;;;;;;;;36.75;13.44;99583.06;4420779;32;20023;-72
2022/05/24 12:14:38;;;;;;;;;;;;;;;37.65;13.11;99571.06;4425555;32;21242;-71
2022/05/24 12:19:43;;;;;;;;;;;;;;;33.78;15.98;99596.94;3946614;32;15723556;-70
2022/05/24 12:22:11;;;;;;;;;;;;;;;33.78;15.98;99596.94;4416403;32;20726;-70
2022/05/24 12:27:33;;;;;;;;;;;;;;;34.50;14.94;99610.50;3948207;32;15722361;-70
2022/05/24 12:32:39;;;;;;;;;;;;;;;34.58;14.99;99607.34;3947547;32;15727545;-70
2022/05/24 12:35:07;;;;;;;;;;;;;;;34.58;14.99;99607.34;4431706;32;19957;-70
2022/05/24 12:37:35;;;;;;;;;;;;;;;34.97;14.89;99609.12;4429767;32;19999;-70
2022/05/24 12:40:05;;;;;;;;;;;;;;;34.79;15.26;99608.00;4430904;32;20008;-71
2022/05/24 12:42:30;;;;;;;;;;;;;;;34.95;15.30;99608.25;4431198;32;19992;-71
2022/05/24 12:44:59;;;;;;;;;;;;;;;34.97;15.24;99617.16;4429424;32;20406;-70
2022/05/24 12:47:25;;;;;;;;;;;;;;;33.71;16.13;99612.53;4428347;32;20592;-70
2022/05/24 12:52:30;;;;;;;;;;;;;;;35.16;15.40;99638.13;3955575;31;15717287;-71
2022/05/24 12:55:05;;;;;;;;;;;;;;;35.16;15.40;99638.13;4436418;32;20320;-72
2022/05/24 12:57:39;;;;;;;;;;;;;;;34.03;16.03;99632.22;4437027;32;20369;-72
2022/05/24 13:00:08;;;;;;;;;;;;;;;33.21;16.27;99630.22;4439930;32;20004;-72
2022/05/24 13:05:20;;;;;;;;;;;;;;;33.42;17.06;99641.16;3942891;32;15722610;-72
2022/05/24 13:10:25;;;;;;;;;;;;;;;36.18;15.17;99628.91;3943541;32;15722527;-72
2022/05/24 13:12:55;;;;;;;;;;;;;;;36.18;15.17;99628.91;4419500;32;20012;-71
2022/05/24 13:15:22;;;;;;;;;;;;;;;35.25;15.74;99640.13;4422759;32;19969;-71
2022/05/24 13:17:52;;;;;;;;;;;;;;;35.54;15.54;99646.34;4419039;32;19996;-71
2022/05/24 13:22:55;;;;;;;;;;;;;;;37.13;14.14;99650.44;3943811;32;15721238;-71
2022/05/24 13:27:59;;;;;;;;;;;;;;;39.50;12.21;99657.19;3944864;32;15733606;-71
2022/05/24 13:33:34;;;;;;;;;;;;;;;39.44;12.02;99659.88;4415649;32;20011;-71
2022/05/24 13:36:02;;;;;;;;;;;;;;;37.92;11.66;99652.44;4415149;32;20364;-71
2022/05/24 13:38:28;;;;;;;;;;;;;;;38.73;11.52;99657.22;4405619;32;20013;-71
2022/05/24 13:40:56;;;;;;;;;;;;;;;37.45;12.73;99660.22;4417331;32;20037;-71
2022/05/24 13:43:39;;;;;;;;;;;;;;;37.55;12.92;99670.31;4414505;32;19988;-71
2022/05/24 13:46:07;;;;;;;;;;;;;;;37.81;12.57;99671.72;4418288;32;20438;-71
2022/05/24 13:48:38;;;;;;;;;;;;;;;38.74;12.36;99670.50;4416119;32;19976;-70
2022/05/24 13:51:05;;;;;;;;;;;;;;;36.72;13.32;99675.22;4418887;32;19988;-71
2022/05/24 13:53:35;;;;;;;;;;;;;;;35.90;14.62;99679.97;4402949;32;20001;-71
2022/05/24 13:56:03;;;;;;;;;;;;;;;36.73;13.58;99679.69;4418096;32;20220;-71
2022/05/24 14:01:07;;;;;;;;;;;;;;;39.24;11.83;99667.75;3951272;32;15722966;-70
2022/05/24 14:03:44;;;;;;;;;;;;;;;39.24;11.83;99667.75;4421485;32;19957;-71
2022/05/24 14:06:12;;;;;;;;;;;;;;;38.93;11.98;99694.22;4421681;32;20008;-71
2022/05/24 14:08:38;;;;;;;;;;;;;;;39.66;11.15;99693.25;4421064;32;19964;-71
2022/05/24 14:11:07;;;;;;;;;;;;;;;40.21;10.87;99704.47;4421027;32;19995;-72
2022/05/24 14:13:33;;;;;;;;;;;;;;;40.44;10.55;99718.72;4417536;32;20256;-72
2022/05/24 14:16:01;;;;;;;;;;;;;;;42.67;9.35;99716.06;4418580;32;20017;-71
2022/05/24 14:18:27;;;;;;;;;;;;;;;42.38;9.17;99719.53;4420951;32;19968;-71
2022/05/24 14:20:52;;;;;;;;;;;;;;;40.48;10.25;99718.87;4418593;32;20343;-71
2022/05/24 14:23:20;;;;;;;;;;;;;;;38.87;11.42;99714.53;4424871;32;20334;-72
2022/05/24 14:25:47;;;;;;;;;;;;;;;38.10;12.21;99709.22;4419414;32;20004;-70
2022/05/24 14:28:13;;;;;;;;;;;;;;;37.54;12.83;99709.13;4420455;32;20405;-71
2022/05/24 14:30:39;;;;;;;;;;;;;;;37.02;13.43;99712.91;4421790;32;19957;-70
2022/05/24 14:33:05;;;;;;;;;;;;;;;36.08;13.64;99716.22;4419933;32;19993;-71
2022/05/24 14:35:30;;;;;;;;;;;;;;;36.22;13.08;99728.75;4421976;32;19954;-71
2022/05/24 14:37:57;;;;;;;;;;;;;;;35.96;13.31;99716.22;4422724;32;20005;-72
2022/05/24 14:40:23;;;;;;;;;;;;;;;36.79;12.88;99721.88;4424021;32;20529;-72
2022/05/24 14:42:49;;;;;;;;;;;;;;;36.62;13.16;99724.50;4417863;32;19997;-71
2022/05/24 14:45:17;;;;;;;;;;;;;;;37.89;12.58;99721.31;4425791;32;19993;-71
2022/05/24 14:47:44;;;;;;;;;;;;;;;35.54;13.77;99733.38;4419966;32;19957;-71
2022/05/24 14:50:09;;;;;;;;;;;;;;;35.35;14.05;99734.41;4422148;32;20009;-72
2022/05/24 14:52:35;;;;;;;;;;;;;;;36.41;13.12;99728.44;4425165;32;20045;-71
2022/05/24 14:55:01;;;;;;;;;;;;;;;38.43;12.01;99746.88;4423435;32;20005;-71
2022/05/24 14:57:26;;;;;;;;;;;;;;;37.62;12.90;99727.97;4415762;32;20058;-74
2022/05/24 14:59:56;;;;;;;;;;;;;;;37.52;13.14;99736.22;4421160;32;19992;-70